Eads, TN (38028)

4:10 AM CDT on April 30, 2017 (GMT -0500)
Oaklawn Estates | | Change Station
Active Advisory: Wind Advisory

Elev 384 ft 35.18 °N, 89.71 °W | Updated 3 minutes ago

Overcast
Overcast
75.2 °F
Feels Like 76 °F
N
2.0
Wind Variable Wind from SE
Gusts 0.0 mph

Today
High -- | Low -- °F
--% Chance of Precip.
Yesterday
High -- | Low -- °F
Precip. -- in
Pressure 29.76 in
Visibility 10.0 miles
Clouds Few 2200 ft
Mostly Cloudy 2700 ft
Overcast 4400 ft
Heat Index 76 °F
Dew Point 69 °F
Humidity 82%
Rainfall 0.33 in
Snow Depth Not available.
6:08 AM 7:43 PM
Waxing Crescent, 21% visible
METAR KNQA 300855Z AUTO 05010KT 10SM FEW022 BKN027 OVC044 19/17 A2976 RMK A01
Pressure 29.76 in
Visibility 10.0 miles
Clouds Few 2200 ft
Mostly Cloudy 2700 ft
Overcast 4400 ft
Heat Index 76 °F
Dew Point 69 °F
Humidity 82%
Rainfall 0.33 in
Snow Depth Not available.
6:08 AM 7:43 PM
Waxing Crescent, 21% visible
METAR KNQA 300855Z AUTO 05010KT 10SM FEW022 BKN027 OVC044 19/17 A2976 RMK A01

Get Your Daily Forecast Email!

Thanks for signing up!

Be on the lookout for a verification email in your inbox.

You'll start receiving severe weather alerts in your inbox..

×

10-Day Weather Forecast

Almanac

Astronomy

Apr. 30, 2017 Rise Set
Actual Time
Civil Twilight
Nautical Twilight
Astronomical Twilight
Moon
Length of Visible Light
Length of Day
Tomorrow will be .
, % of the Moon is Illuminated

Today's Extremes

State Highs State Lows

Community

WunderPhotos

WunderBlog® & News

Nearby

Air Quality

  Air Quality AQ Index Pollutant
Not available.

Snow Depth

Station Depth Elevation

Earthquake Activity

City Distance Mag. Time & Date
Minimum magnitude displayed is 2.5.

Coastal Water Temperatures

Place Temperature

Stations

Nearby Weather Stations

Station Location Temp. Windchill Dew Point Humidity Wind Precip. Elev Updated Type
                   

Watches & Warnings

Wind Advisory
Issued: 2:17 AM CDT Apr. 30, 2017 – National Weather Service

... Wind Advisory in effect until 7 PM CDT this evening...

The National Weather Service in Memphis has issued a Wind
Advisory, which is in effect until 7 PM CDT this evening.

* Winds... south winds sustained of 20 to 30 mph... with gusts to
40 mph

* timing... through late afternoon today.

* Impacts... loose outdoor items will be vulnerable in the wind.
Driving may become hazardous... especially for high profile
vehicles on west to east roadways.

Precautionary/preparedness actions...

A Wind Advisory means that sustained winds of 25 to 39 mph are
expected... or gusts will range between 40 and 57 mph. Winds this
strong can make driving difficult... especially for high profile
vehicles. Use extra caution.